Wilton, California
Current Conditions -  °F | °C
As of 10:20 AM on Friday 28 Nov 2014 (Local Time) from KMHR Reporting Station
Haze Haze  
Wind Chill: 54°   Ceiling: 18000
Heat Index: 54°   Visibility: 2mi
Dew Point: 54°   Wind: 5mph
Humidity: 100%   Direction: 220°SW
Pressure: 30.03"   Gusts: NA
Location:  38.42°N, 121.21°W
Report Text: KMHR 281820Z 22004KT 2SM BR FEW032 BKN180 12/12 A3003
Loading
Personal Weather Stations






























Interactive Weather Map New forecast layout! Learn more

10-Day Weather Forecast

Advertisements
Track Severe Weather on mobile